createdAt,value
2022-12-28T00:00:06.022Z,8.85
2022-12-28T00:02:38.614Z,7.95
2022-12-28T00:05:07.699Z,7.22
2022-12-28T00:07:36.815Z,6.15
2022-12-28T00:10:10.219Z,11.52
2022-12-28T00:12:39.879Z,6.70
2022-12-28T00:15:11.861Z,6.55
2022-12-28T00:17:44.133Z,8.73
2022-12-28T00:20:15.927Z,10.38
2022-12-28T00:22:45.855Z,7.30
2022-12-28T00:25:13.334Z,10.27
2022-12-28T00:30:12.311Z,8.30
2022-12-28T00:32:39.252Z,8.95
2022-12-28T00:35:09.383Z,9.10
2022-12-28T00:37:41.529Z,11.43
2022-12-28T00:40:12.523Z,10.05
2022-12-28T00:42:44.030Z,8.68
2022-12-28T00:45:11.425Z,12.63
2022-12-28T00:47:38.256Z,11.13
2022-12-28T00:50:12.690Z,9.85
2022-12-28T00:52:41.382Z,12.55
2022-12-28T00:55:12.319Z,9.65
2022-12-28T00:57:41.177Z,8.10
2022-12-28T01:02:42.934Z,11.85
2022-12-28T01:05:10.537Z,8.48
2022-12-28T01:07:51.272Z,10.52
2022-12-28T01:10:21.244Z,6.30
2022-12-28T01:12:50.452Z,10.68
2022-12-28T01:15:21.781Z,12.15
2022-12-28T01:17:48.731Z,10.18
2022-12-28T01:20:16.189Z,8.80
2022-12-28T01:22:43.122Z,9.23
2022-12-28T01:25:10.545Z,8.27
2022-12-28T01:27:37.472Z,8.05
2022-12-28T01:30:05.622Z,11.60
2022-12-28T01:32:36.761Z,10.95
2022-12-28T01:35:10.429Z,12.60
2022-12-28T01:37:37.343Z,15.27
2022-12-28T01:40:15.344Z,11.23
2022-12-28T01:42:44.932Z,15.13
2022-12-28T01:45:17.936Z,14.90
2022-12-28T01:47:49.379Z,13.27
2022-12-28T01:50:23.112Z,11.90
2022-12-28T01:52:57.265Z,13.32
2022-12-28T01:55:27.979Z,12.23
2022-12-28T01:58:14.855Z,16.17
2022-12-28T02:00:46.169Z,16.92
2022-12-28T02:03:20.161Z,18.88
2022-12-28T02:05:53.995Z,16.92
2022-12-28T02:08:28.297Z,18.30
2022-12-28T02:10:57.469Z,16.48
2022-12-28T02:13:26.121Z,25.35
2022-12-28T02:15:58.717Z,12.63
2022-12-28T02:18:27.816Z,14.88
2022-12-28T02:21:22.894Z,12.15
2022-12-28T02:24:17.573Z,14.55
2022-12-28T02:26:55.062Z,14.75
2022-12-28T02:29:58.994Z,18.25
2022-12-28T02:32:34.904Z,12.18
2022-12-28T02:35:08.446Z,11.20
2022-12-28T02:37:44.891Z,13.07
2022-12-28T02:40:16.295Z,13.65
2022-12-28T02:42:46.619Z,13.23
2022-12-28T02:45:57.116Z,14.48
2022-12-28T02:48:43.700Z,15.23
2022-12-28T02:51:26.899Z,13.75
2022-12-28T02:54:53.777Z,11.40
2022-12-28T02:57:37.647Z,15.80
2022-12-28T03:00:15.671Z,11.43
2022-12-28T03:03:15.858Z,14.38
2022-12-28T03:06:15.986Z,12.18
2022-12-28T03:08:58.881Z,12.32
2022-12-28T03:11:35.705Z,9.40
2022-12-28T03:14:08.181Z,11.95
2022-12-28T03:16:59.098Z,13.82
2022-12-28T03:19:56.140Z,11.50
2022-12-28T03:22:43.367Z,13.77
2022-12-28T03:25:35.242Z,15.68
2022-12-28T03:28:25.903Z,12.43
2022-12-28T03:31:06.973Z,13.38
2022-12-28T03:33:36.615Z,10.45
2022-12-28T03:36:12.733Z,18.65
2022-12-28T03:38:53.724Z,15.00
2022-12-28T03:41:29.635Z,15.05
2022-12-28T03:44:32.380Z,14.95
2022-12-28T03:47:09.077Z,18.40
2022-12-28T03:49:40.063Z,13.07
2022-12-28T03:52:15.005Z,12.93
2022-12-28T03:54:42.787Z,12.65
2022-12-28T03:57:25.275Z,11.55
2022-12-28T03:59:55.029Z,15.85
2022-12-28T04:02:22.014Z,15.18
2022-12-28T04:04:51.680Z,25.17
2022-12-28T04:07:22.547Z,22.58
2022-12-28T04:09:49.742Z,13.20
2022-12-28T04:12:21.798Z,16.10
2022-12-28T04:14:49.002Z,14.20
2022-12-28T04:17:18.789Z,9.85
2022-12-28T04:19:48.884Z,13.32
2022-12-28T04:22:15.739Z,9.45
2022-12-28T04:24:44.792Z,8.73
2022-12-28T04:27:11.825Z,13.90
2022-12-28T04:29:39.200Z,13.98
2022-12-28T04:32:06.373Z,12.63
2022-12-28T04:34:36.621Z,13.82
2022-12-28T04:37:03.612Z,13.25
2022-12-28T04:39:54.176Z,15.68
2022-12-28T04:42:23.910Z,10.88
2022-12-28T04:44:51.299Z,54.67
2022-12-28T04:47:21.344Z,39.42
2022-12-28T04:49:53.594Z,18.13
2022-12-28T04:52:22.294Z,15.05
2022-12-28T04:54:49.417Z,14.20
2022-12-28T04:57:16.463Z,15.35
2022-12-28T04:59:45.040Z,9.27
2022-12-28T05:02:12.127Z,16.77
2022-12-28T05:04:39.541Z,13.88
2022-12-28T05:07:08.111Z,15.48
2022-12-28T05:09:35.310Z,12.00
2022-12-28T05:12:02.195Z,14.43
2022-12-28T05:14:35.092Z,20.33
2022-12-28T05:17:05.365Z,15.13
2022-12-28T05:19:32.422Z,16.17
2022-12-28T05:21:59.396Z,14.20
2022-12-28T05:24:28.125Z,32.20
2022-12-28T05:26:55.245Z,18.10
2022-12-28T05:29:33.442Z,19.30
2022-12-28T05:32:04.340Z,14.80
2022-12-28T05:34:53.345Z,18.50
2022-12-28T05:37:25.756Z,18.17
2022-12-28T05:39:52.929Z,22.23
2022-12-28T05:42:51.630Z,20.45
2022-12-28T05:45:19.257Z,32.58
2022-12-28T05:47:46.887Z,39.22
2022-12-28T05:50:15.639Z,32.90
2022-12-28T05:52:47.829Z,19.13
2022-12-28T05:55:15.074Z,21.55
2022-12-28T05:57:44.591Z,25.65
2022-12-28T06:00:17.961Z,23.70
2022-12-28T06:02:47.486Z,27.58
2022-12-28T06:05:18.856Z,53.95
2022-12-28T06:07:45.776Z,50.40
2022-12-28T06:10:14.788Z,57.38
2022-12-28T06:12:46.167Z,30.77
2022-12-28T06:15:19.024Z,23.42
2022-12-28T06:17:45.943Z,21.38
2022-12-28T06:20:13.218Z,23.27
2022-12-28T06:22:44.144Z,24.05
2022-12-28T06:25:12.785Z,27.33
2022-12-28T06:27:42.624Z,30.20
2022-12-28T06:30:17.707Z,29.38
2022-12-28T06:32:47.079Z,27.40
2022-12-28T06:35:17.388Z,28.30
2022-12-28T06:37:47.323Z,19.75
2022-12-28T06:40:16.870Z,26.42
2022-12-28T06:42:45.447Z,19.85
2022-12-28T06:45:18.742Z,19.60
2022-12-28T06:47:45.734Z,33.75
2022-12-28T06:50:13.027Z,23.08
2022-12-28T06:52:43.133Z,24.50
2022-12-28T06:55:11.966Z,30.88
2022-12-28T06:57:41.324Z,28.35
2022-12-28T07:00:10.136Z,29.77
2022-12-28T07:02:37.352Z,23.15
2022-12-28T07:05:13.565Z,31.05
2022-12-28T07:07:40.443Z,28.02
2022-12-28T07:10:08.295Z,21.80
2022-12-28T07:12:36.635Z,25.77
2022-12-28T07:15:10.576Z,25.77
2022-12-28T07:17:43.995Z,32.90
2022-12-28T07:20:14.337Z,29.98
2022-12-28T07:22:41.466Z,37.65
2022-12-28T07:27:38.600Z,30.35
2022-12-28T07:30:07.111Z,28.15
2022-12-28T07:32:36.773Z,27.97
2022-12-28T07:35:09.656Z,25.27
2022-12-28T07:37:36.636Z,37.38
2022-12-28T07:40:06.499Z,32.42
2022-12-28T07:42:33.463Z,37.75
2022-12-28T07:45:04.727Z,35.58
2022-12-28T07:47:35.052Z,42.72
2022-12-28T07:50:05.309Z,48.70
2022-12-28T07:52:36.087Z,35.30
2022-12-28T07:55:05.498Z,37.58
2022-12-28T08:00:07.373Z,36.03
2022-12-28T08:02:34.310Z,31.42
2022-12-28T08:05:04.752Z,37.53
2022-12-28T08:07:34.800Z,23.65
2022-12-28T08:10:04.991Z,32.75
2022-12-28T08:15:10.505Z,22.38
2022-12-28T08:17:38.273Z,24.77
2022-12-28T08:20:09.169Z,23.58
2022-12-28T08:22:36.178Z,28.90
2022-12-28T08:25:06.623Z,21.30
2022-12-28T08:27:38.403Z,19.70
2022-12-28T08:30:08.985Z,19.90
2022-12-28T08:32:38.049Z,20.92
2022-12-28T08:35:05.998Z,20.88
2022-12-28T08:37:32.876Z,19.30
2022-12-28T08:42:31.389Z,23.65
2022-12-28T08:45:00.887Z,22.63
2022-12-28T08:50:06.054Z,16.50
2022-12-28T08:52:32.867Z,17.23
2022-12-28T08:55:00.234Z,17.45
2022-12-28T08:57:30.069Z,28.27
2022-12-28T09:00:00.281Z,19.42
2022-12-28T09:02:30.633Z,24.33
2022-12-28T09:04:57.902Z,18.83
2022-12-28T09:07:24.900Z,23.58
2022-12-28T09:09:54.390Z,18.95
2022-12-28T09:14:48.574Z,15.88
2022-12-28T09:17:18.331Z,20.45
2022-12-28T09:19:47.164Z,23.95
2022-12-28T09:22:17.041Z,18.38
2022-12-28T09:24:47.705Z,16.60
2022-12-28T09:27:16.387Z,16.48
2022-12-28T09:29:48.698Z,19.55
2022-12-28T09:32:15.723Z,18.60
2022-12-28T09:34:42.965Z,16.20
2022-12-28T09:37:11.250Z,17.42
2022-12-28T09:39:38.552Z,25.48
2022-12-28T09:42:12.436Z,16.20
2022-12-28T09:44:51.806Z,14.23
2022-12-28T09:47:27.586Z,13.35
2022-12-28T09:50:15.217Z,12.15
2022-12-28T09:52:52.028Z,18.88
2022-12-28T09:55:20.331Z,25.67
2022-12-28T09:57:50.579Z,18.15
2022-12-28T10:00:20.021Z,12.18
2022-12-28T10:02:52.218Z,16.33
2022-12-28T10:05:21.314Z,17.88
2022-12-28T10:07:57.789Z,13.30
2022-12-28T10:10:26.491Z,12.88
2022-12-28T10:12:54.082Z,15.13
2022-12-28T10:15:23.188Z,17.88
2022-12-28T10:17:50.133Z,12.90
2022-12-28T10:20:20.510Z,14.02
2022-12-28T10:22:57.489Z,10.48
2022-12-28T10:25:27.047Z,10.65
2022-12-28T10:27:54.930Z,19.13
2022-12-28T10:30:26.899Z,12.40
2022-12-28T10:33:03.806Z,16.73
2022-12-28T10:35:41.547Z,30.20
2022-12-28T10:38:21.235Z,16.08
2022-12-28T10:40:56.593Z,12.95
2022-12-28T10:43:29.202Z,19.60
2022-12-28T10:45:58.164Z,21.35
2022-12-28T10:48:28.418Z,11.25
2022-12-28T10:50:58.075Z,14.07
2022-12-28T10:53:30.064Z,14.43
2022-12-28T10:56:05.695Z,10.82
2022-12-28T10:58:34.276Z,12.05
2022-12-28T11:01:05.363Z,16.15
2022-12-28T11:03:36.864Z,11.15
2022-12-28T11:06:13.144Z,11.93
2022-12-28T11:08:45.466Z,14.52
2022-12-28T11:11:21.363Z,16.25
2022-12-28T11:13:55.463Z,14.88
2022-12-28T11:16:24.326Z,19.52
2022-12-28T11:18:51.454Z,10.40
2022-12-28T11:21:21.081Z,14.10
2022-12-28T11:23:51.403Z,13.25
2022-12-28T11:26:29.667Z,13.05
2022-12-28T11:28:56.596Z,11.07
2022-12-28T11:31:33.367Z,17.17
2022-12-28T11:34:04.586Z,13.98
2022-12-28T11:36:37.621Z,10.75
2022-12-28T11:39:33.205Z,13.43
2022-12-28T11:42:38.025Z,9.77
2022-12-28T11:45:01.700Z,11.35
2022-12-28T11:47:33.581Z,11.43
2022-12-28T11:50:42.320Z,6.53
2022-12-28T11:53:42.256Z,6.65
2022-12-28T11:56:16.276Z,10.38
2022-12-28T11:59:01.415Z,6.95
2022-12-28T12:02:00.002Z,8.18
2022-12-28T12:07:52.997Z,9.10
2022-12-28T12:10:38.936Z,11.32
2022-12-28T12:13:46.242Z,14.40
2022-12-28T12:16:31.339Z,14.18
2022-12-28T12:19:00.804Z,11.07
2022-12-28T12:21:35.431Z,7.25
2022-12-28T12:24:13.405Z,14.05
2022-12-28T12:26:48.746Z,7.25
2022-12-28T12:29:21.238Z,5.78
2022-12-28T12:31:56.141Z,10.43
2022-12-28T12:34:29.188Z,9.30
2022-12-28T12:37:29.076Z,7.07
2022-12-28T12:40:32.048Z,6.65
2022-12-28T12:43:19.253Z,6.20
2022-12-28T12:46:00.322Z,7.18
2022-12-28T12:48:47.405Z,11.10
2022-12-28T12:51:26.675Z,10.02
2022-12-28T12:54:13.944Z,10.15
2022-12-28T12:56:53.197Z,6.43
2022-12-28T12:59:51.941Z,6.88
2022-12-28T13:02:41.787Z,10.63
2022-12-28T13:05:16.447Z,8.32
2022-12-28T13:07:46.262Z,7.50
2022-12-28T13:10:19.184Z,7.97
2022-12-28T13:12:47.786Z,7.68
2022-12-28T13:15:16.872Z,9.15
2022-12-28T13:20:39.802Z,7.03
2022-12-28T13:23:15.920Z,6.63
2022-12-28T13:25:47.594Z,11.77
2022-12-28T13:28:24.335Z,6.55
2022-12-28T13:31:22.345Z,8.10
2022-12-28T13:33:57.612Z,4.57
2022-12-28T13:36:48.368Z,15.40
2022-12-28T13:39:17.996Z,5.70
2022-12-28T13:41:51.467Z,4.63
2022-12-28T13:44:48.178Z,9.98
2022-12-28T13:47:23.326Z,6.88
2022-12-28T13:50:00.273Z,6.85
2022-12-28T13:52:34.178Z,5.95
2022-12-28T13:55:05.309Z,9.98
2022-12-28T13:57:52.675Z,9.60
2022-12-28T14:00:30.710Z,6.35
2022-12-28T14:03:06.471Z,11.57
2022-12-28T14:05:35.390Z,10.32
2022-12-28T14:08:08.451Z,12.60
2022-12-28T14:10:37.353Z,11.55
2022-12-28T14:13:04.785Z,10.63
2022-12-28T14:15:40.863Z,10.63
2022-12-28T14:18:09.910Z,8.55
2022-12-28T14:20:46.932Z,11.02
2022-12-28T14:25:54.053Z,8.93
2022-12-28T14:28:31.160Z,8.95
2022-12-28T14:30:58.671Z,10.60
2022-12-28T14:33:29.763Z,9.57
2022-12-28T14:36:08.654Z,10.77
2022-12-28T14:38:47.470Z,9.60
2022-12-28T14:41:23.525Z,8.95
2022-12-28T14:44:03.533Z,8.15
2022-12-28T14:46:41.056Z,9.25
2022-12-28T14:49:43.358Z,11.60
2022-12-28T14:52:42.932Z,13.27
2022-12-28T14:55:55.596Z,15.18
2022-12-28T14:58:27.902Z,19.50
2022-12-28T15:00:58.494Z,26.65
2022-12-28T15:03:28.969Z,18.35
2022-12-28T15:05:59.215Z,26.33
2022-12-28T15:08:29.829Z,19.58
2022-12-28T15:11:01.698Z,22.58
2022-12-28T15:13:34.570Z,20.08
2022-12-28T15:16:07.352Z,23.65
2022-12-28T15:18:38.408Z,20.88
2022-12-28T15:21:07.956Z,25.30
2022-12-28T15:23:35.350Z,21.90
2022-12-28T15:28:35.849Z,18.60
2022-12-28T15:31:05.657Z,21.87
2022-12-28T15:33:38.129Z,20.42
2022-12-28T15:36:16.776Z,34.38
2022-12-28T15:38:45.567Z,32.83
2022-12-28T15:41:37.417Z,19.38
2022-12-28T15:44:05.311Z,21.63
2022-12-28T15:46:34.116Z,25.90
2022-12-28T15:51:29.163Z,38.80
2022-12-28T15:53:56.324Z,40.72
2022-12-28T15:56:26.618Z,37.28
2022-12-28T15:58:54.806Z,43.50
2022-12-28T16:01:22.388Z,43.50
2022-12-28T16:04:02.725Z,52.85
2022-12-28T16:06:37.132Z,46.67
2022-12-28T16:09:10.365Z,56.40
2022-12-28T16:11:38.783Z,44.00
2022-12-28T16:14:16.878Z,56.95
2022-12-28T16:16:47.085Z,48.50
2022-12-28T16:19:15.452Z,44.50
2022-12-28T16:21:43.275Z,34.85
2022-12-28T16:24:11.315Z,47.35
2022-12-28T16:26:39.738Z,67.50
2022-12-28T16:29:15.251Z,97.68
2022-12-28T16:31:42.274Z,74.60
2022-12-28T16:34:15.928Z,77.47
2022-12-28T16:36:46.662Z,54.97
2022-12-28T16:39:15.848Z,62.58
2022-12-28T16:41:44.564Z,50.42
2022-12-28T16:44:16.882Z,55.90
2022-12-28T16:46:46.824Z,45.95
2022-12-28T16:49:14.056Z,46.22
2022-12-28T16:51:47.358Z,35.15
2022-12-28T16:54:16.740Z,46.55
2022-12-28T16:59:15.408Z,35.53
2022-12-28T17:01:43.252Z,23.02
2022-12-28T17:04:11.290Z,38.30
2022-12-28T17:06:38.564Z,41.95
2022-12-28T17:09:06.264Z,44.95
2022-12-28T17:11:33.619Z,37.63
2022-12-28T17:14:03.964Z,31.17
2022-12-28T17:16:34.282Z,32.25
2022-12-28T17:19:04.807Z,43.38
2022-12-28T17:21:33.031Z,36.58
2022-12-28T17:24:02.874Z,50.58
2022-12-28T17:26:30.142Z,42.30
2022-12-28T17:28:59.852Z,44.38
2022-12-28T17:31:28.306Z,49.63
2022-12-28T17:36:24.918Z,32.42
2022-12-28T17:38:52.588Z,41.60
2022-12-28T17:41:21.696Z,44.08
2022-12-28T17:43:50.740Z,41.33
2022-12-28T17:46:18.469Z,33.10
2022-12-28T17:48:47.270Z,39.85
2022-12-28T17:51:15.459Z,34.22
2022-12-28T17:53:46.129Z,28.33
2022-12-28T17:56:14.610Z,26.42
2022-12-28T17:58:49.358Z,24.35
2022-12-28T18:01:46.214Z,26.80
2022-12-28T18:04:50.932Z,33.47
2022-12-28T18:07:25.038Z,24.25
2022-12-28T18:09:52.228Z,32.22
2022-12-28T18:12:21.761Z,26.20
2022-12-28T18:14:55.589Z,25.92
2022-12-28T18:17:24.747Z,26.27
2022-12-28T18:19:55.822Z,29.10
2022-12-28T18:22:25.702Z,29.95
2022-12-28T18:24:53.618Z,29.60
2022-12-28T18:29:52.144Z,32.22
2022-12-28T18:32:19.175Z,27.13
2022-12-28T18:34:46.618Z,24.17
2022-12-28T18:37:14.893Z,27.00
2022-12-28T18:39:42.002Z,29.63
2022-12-28T18:42:08.980Z,30.02
2022-12-28T18:44:36.677Z,28.70
2022-12-28T18:47:06.622Z,31.50
2022-12-28T18:49:35.049Z,33.72
2022-12-28T18:52:03.456Z,37.50
2022-12-28T18:54:32.029Z,33.03
2022-12-28T18:56:58.937Z,43.55
2022-12-28T18:59:26.061Z,36.90
2022-12-28T19:02:06.407Z,43.63
2022-12-28T19:04:35.257Z,36.33
2022-12-28T19:07:04.420Z,39.97
2022-12-28T19:09:33.002Z,42.47
2022-12-28T19:12:06.997Z,41.60
2022-12-28T19:14:36.283Z,38.80
2022-12-28T19:17:03.208Z,37.28
2022-12-28T19:19:31.576Z,40.92
2022-12-28T19:22:01.234Z,34.63
2022-12-28T19:24:32.377Z,30.60
2022-12-28T19:26:59.207Z,28.05
2022-12-28T19:29:29.355Z,29.02
2022-12-28T19:31:56.721Z,23.00
2022-12-28T19:34:26.336Z,22.70
2022-12-28T19:36:56.218Z,23.65
2022-12-28T19:39:26.191Z,24.65
2022-12-28T19:41:55.192Z,28.25
2022-12-28T19:44:24.767Z,36.15
2022-12-28T19:46:53.915Z,44.50
2022-12-28T19:49:21.332Z,48.30
2022-12-28T19:51:48.369Z,37.90
2022-12-28T19:54:21.028Z,27.80
2022-12-28T19:56:50.266Z,34.22
2022-12-28T19:59:18.905Z,27.02
2022-12-28T20:01:48.208Z,26.30
2022-12-28T20:04:15.517Z,28.02
2022-12-28T20:06:45.735Z,26.85
2022-12-28T20:09:14.241Z,27.80
2022-12-28T20:11:41.618Z,29.57
2022-12-28T20:14:13.229Z,25.55
2022-12-28T20:16:43.278Z,28.08
2022-12-28T20:19:15.548Z,22.45
2022-12-28T20:21:44.143Z,22.45
2022-12-28T20:24:12.710Z,27.33
2022-12-28T20:26:39.722Z,20.63
2022-12-28T20:29:07.068Z,22.67
2022-12-28T20:31:34.195Z,22.80
2022-12-28T20:34:05.745Z,31.85
2022-12-28T20:36:34.337Z,30.90
2022-12-28T20:39:02.643Z,30.38
2022-12-28T20:41:49.534Z,30.98
2022-12-28T20:44:26.003Z,33.60
2022-12-28T20:46:54.046Z,34.13
2022-12-28T20:49:24.296Z,36.53
2022-12-28T20:51:53.410Z,32.83
2022-12-28T20:57:02.125Z,41.03
2022-12-28T20:59:29.298Z,33.38
2022-12-28T21:01:56.392Z,36.25
2022-12-28T21:04:25.927Z,38.08
2022-12-28T21:06:53.959Z,26.35
2022-12-28T21:09:21.569Z,23.58
2022-12-28T21:11:52.437Z,25.08
2022-12-28T21:14:19.986Z,23.02
2022-12-28T21:16:47.086Z,24.17
2022-12-28T21:19:14.544Z,24.42
2022-12-28T21:21:44.784Z,25.50
2022-12-28T21:24:12.059Z,26.95
2022-12-28T21:26:52.222Z,27.73
2022-12-28T21:29:25.585Z,25.85
2022-12-28T21:31:53.137Z,23.30
2022-12-28T21:34:20.463Z,27.25
2022-12-28T21:36:49.202Z,22.40
2022-12-28T21:39:16.326Z,25.67
2022-12-28T21:41:48.976Z,22.25
2022-12-28T21:44:23.595Z,23.65
2022-12-28T21:46:51.276Z,23.27
2022-12-28T21:49:20.800Z,17.98
2022-12-28T21:54:23.952Z,17.33
2022-12-28T21:56:59.760Z,20.30
2022-12-28T21:59:29.453Z,18.95
2022-12-28T22:02:15.102Z,20.83
2022-12-28T22:05:03.357Z,25.08
2022-12-28T22:07:34.499Z,27.47
2022-12-28T22:10:20.349Z,26.60
2022-12-28T22:12:47.268Z,31.17
2022-12-28T22:15:36.074Z,30.63
2022-12-28T22:18:05.227Z,29.30
2022-12-28T22:20:36.627Z,23.98
2022-12-28T22:23:07.078Z,23.23
2022-12-28T22:25:37.287Z,31.67
2022-12-28T22:28:05.953Z,25.10
2022-12-28T22:30:35.410Z,24.65
2022-12-28T22:33:05.328Z,22.52
2022-12-28T22:35:34.093Z,22.67
2022-12-28T22:38:03.658Z,21.52
2022-12-28T22:40:41.518Z,30.30
2022-12-28T22:43:18.323Z,26.27
2022-12-28T22:45:45.589Z,27.77
2022-12-28T22:48:14.643Z,23.23
2022-12-28T22:50:45.965Z,31.58
2022-12-28T22:53:12.859Z,25.65
2022-12-28T22:55:41.479Z,30.08
2022-12-28T22:58:10.879Z,26.50
2022-12-28T23:00:40.830Z,24.15
2022-12-28T23:03:08.100Z,23.17
2022-12-28T23:05:35.337Z,22.60
2022-12-28T23:08:02.315Z,17.42
2022-12-28T23:10:33.524Z,23.88
2022-12-28T23:13:01.691Z,21.08
2022-12-28T23:15:30.002Z,24.73
2022-12-28T23:18:17.376Z,19.27
2022-12-28T23:21:06.050Z,25.83
2022-12-28T23:23:53.853Z,21.88
2022-12-28T23:26:39.647Z,19.08
2022-12-28T23:29:11.387Z,22.27
2022-12-28T23:31:40.685Z,19.15
2022-12-28T23:34:10.242Z,22.23
2022-12-28T23:36:38.609Z,21.35
2022-12-28T23:39:06.132Z,16.98
2022-12-28T23:41:48.203Z,21.00
2022-12-28T23:44:20.511Z,16.60
2022-12-28T23:46:51.299Z,17.67
2022-12-28T23:49:21.075Z,18.38
2022-12-28T23:51:48.355Z,19.88
2022-12-28T23:54:19.725Z,19.35
2022-12-28T23:56:48.712Z,15.98
2022-12-28T23:59:15.879Z,19.55
